Time;durP1;ratioP1;P1;durP2;ratioP2;P2;SDS_P1;SDS_P2;PMS_P1;PMS_P2;Temp;Humidity;BMP_temperature;BMP_pressure;BME280_temperature;BME280_humidity;BME280_pressure;Samples;Min_cycle;Max_cycle;Signal;HPM_P1;HPM_P2
2022/10/28 00:00:47;;;;;;;52.55;23.52;;;11.90;99.90;;;;;;5055866;28;20386;-76
2022/10/28 00:03:13;;;;;;;;;;;12.00;99.90;;;;;;5074345;28;20057;-75
2022/10/28 00:05:38;;;;;;;43.40;19.63;;;11.90;99.90;;;;;;5056115;28;19978;-76
2022/10/28 00:08:04;;;;;;;41.33;19.45;;;12.00;99.90;;;;;;5074551;28;20040;-75
2022/10/28 00:10:30;;;;;;;;;;;11.90;99.90;;;;;;5074668;28;20029;-75
2022/10/28 00:12:55;;;;;;;38.88;17.90;;;12.00;99.90;;;;;;5056350;28;20009;-76
2022/10/28 00:15:21;;;;;;;;;;;11.90;99.90;;;;;;5056308;28;20166;-76
2022/10/28 00:17:46;;;;;;;47.53;20.70;;;11.90;99.90;;;;;;5073818;28;19912;-76
2022/10/28 00:20:12;;;;;;;;;;;11.90;99.90;;;;;;5057007;28;20028;-75
2022/10/28 00:22:37;;;;;;;37.10;18.42;;;11.90;99.90;;;;;;5056314;28;20284;-76
2022/10/28 00:25:03;;;;;;;;;;;11.80;99.90;;;;;;5075346;28;20025;-76
2022/10/28 00:27:29;;;;;;;39.17;18.17;;;11.90;99.90;;;;;;5074570;28;19912;-76
2022/10/28 00:29:55;;;;;;;;;;;11.80;99.90;;;;;;5056038;28;20036;-75
2022/10/28 00:32:21;;;;;;;42.10;18.87;;;11.80;99.90;;;;;;5074553;28;19908;-75
2022/10/28 00:34:46;;;;;;;;;;;11.80;99.90;;;;;;5074859;28;20316;-75
2022/10/28 00:37:12;;;;;;;42.38;18.83;;;11.80;99.90;;;;;;5057070;28;20280;-76
2022/10/28 00:39:38;;;;;;;;;;;11.80;99.90;;;;;;5056877;28;20036;-77
2022/10/28 00:42:05;;;;;;;58.22;22.23;;;11.80;99.90;;;;;;5058057;28;19926;-76
2022/10/28 00:44:52;;;;;;;47.33;20.40;;;11.80;99.90;;;;;;5054635;28;20032;-76
2022/10/28 00:47:26;;;;;;;;;;;11.80;99.90;;;;;;5072875;28;20070;-76
2022/10/28 00:49:56;;;;;;;43.70;20.63;;;11.70;99.90;;;;;;5072226;28;19908;-76
2022/10/28 00:52:26;;;;;;;44.30;18.98;;;11.70;99.90;;;;;;5071837;28;20516;-76
2022/10/28 00:54:52;;;;;;;33.75;16.98;;;11.70;99.90;;;;;;5071687;28;20078;-75
2022/10/28 00:57:23;;;;;;;50.80;21.65;;;11.70;99.90;;;;;;5072090;28;20013;-76
2022/10/28 00:59:52;;;;;;;41.20;18.10;;;11.70;99.90;;;;;;5071945;28;20075;-76
2022/10/28 01:02:18;;;;;;;42.22;19.42;;;11.60;99.90;;;;;;5054031;28;20020;-76
2022/10/28 01:04:46;;;;;;;35.70;18.38;;;11.70;99.90;;;;;;5063385;28;20083;-75
2022/10/28 01:07:13;;;;;;;35.55;17.67;;;11.70;99.90;;;;;;5033739;28;20029;-76
2022/10/28 01:09:40;;;;;;;35.67;17.15;;;11.70;99.90;;;;;;5051687;28;20025;-75
2022/10/28 01:12:24;;;;;;;40.05;17.45;;;11.70;99.90;;;;;;5051456;28;20064;-75
2022/10/28 01:14:59;;;;;;;37.08;16.75;;;11.70;99.90;;;;;;5047246;28;20046;-76
2022/10/28 01:17:47;;;;;;;46.08;17.50;;;11.70;99.90;;;;;;5053297;28;20497;-76
2022/10/28 01:20:45;;;;;;;32.63;16.05;;;11.70;99.90;;;;;;5053567;28;20455;-76
2022/10/28 01:23:15;;;;;;;34.25;16.17;;;11.70;99.90;;;;;;5029645;28;20044;-75
2022/10/28 01:26:01;;;;;;;40.70;18.75;;;11.60;99.90;;;;;;5053458;28;20500;-76
2022/10/28 01:28:59;;;;;;;40.35;17.38;;;11.60;99.90;;;;;;5051352;28;20035;-75
2022/10/28 01:31:42;;;;;;;43.53;18.50;;;11.70;99.90;;;;;;5016781;28;20056;-76
2022/10/28 01:34:17;;;;;;;42.72;18.60;;;11.60;99.90;;;;;;5053431;28;20020;-75
2022/10/28 01:36:55;;;;;;;37.72;18.27;;;11.60;99.90;;;;;;5068750;28;20032;-76
2022/10/28 01:39:39;;;;;;;36.35;17.67;;;11.70;99.90;;;;;;5060666;28;20041;-75
2022/10/28 01:42:10;;;;;;;36.58;18.30;;;11.60;99.90;;;;;;5033276;28;20025;-75
2022/10/28 01:44:54;;;;;;;34.35;17.02;;;11.70;99.90;;;;;;5050439;28;20029;-76
2022/10/28 01:47:25;;;;;;;35.40;18.50;;;11.70;99.90;;;;;;5051887;28;20473;-76
2022/10/28 01:49:59;;;;;;;36.55;19.65;;;11.70;99.90;;;;;;5033446;28;20192;-76
2022/10/28 01:52:28;;;;;;;36.58;17.33;;;11.80;99.90;;;;;;5051383;28;20071;-76
2022/10/28 01:55:05;;;;;;;38.88;20.40;;;11.70;99.90;;;;;;5050504;28;20021;-75
2022/10/28 01:57:34;;;;;;;38.42;19.20;;;11.70;99.90;;;;;;5051068;28;20025;-76
2022/10/28 02:00:01;;;;;;;46.97;22.15;;;11.70;99.90;;;;;;5033517;28;20040;-76
2022/10/28 02:02:32;;;;;;;38.53;19.25;;;11.60;99.90;;;;;;5052017;28;20047;-76
2022/10/28 02:05:44;;;;;;;44.38;21.58;;;11.70;99.90;;;;;;5051278;28;20031;-76
2022/10/28 02:08:40;;;;;;;38.83;19.58;;;11.70;99.90;;;;;;5010234;28;20072;-76
2022/10/28 02:11:21;;;;;;;39.35;19.40;;;11.70;99.90;;;;;;5051665;28;20064;-76
2022/10/28 02:14:10;;;;;;;41.67;19.58;;;11.70;99.90;;;;;;5052155;28;20021;-76
2022/10/28 02:16:50;;;;;;;38.95;18.60;;;11.70;99.90;;;;;;5033663;28;20029;-76
2022/10/28 02:19:34;;;;;;;34.03;18.13;;;11.70;99.90;;;;;;5033671;28;20063;-76
2022/10/28 02:22:03;;;;;;;41.60;17.50;;;11.70;99.90;;;;;;5033636;28;20029;-76
2022/10/28 02:25:02;;;;;;;37.10;18.55;;;11.70;99.90;;;;;;5034241;28;20393;-76
2022/10/28 02:27:56;;;;;;;37.05;18.92;;;11.60;99.90;;;;;;5051673;28;20056;-76
2022/10/28 02:30:29;;;;;;;40.15;20.50;;;11.60;99.90;;;;;;5033995;28;20033;-76
2022/10/28 02:33:01;;;;;;;35.78;18.73;;;11.50;99.90;;;;;;5034004;28;20059;-76
2022/10/28 02:35:45;;;;;;;39.38;19.27;;;11.60;99.90;;;;;;5050902;28;20021;-77
2022/10/28 02:38:27;;;;;;;39.13;18.80;;;11.60;99.90;;;;;;5051702;28;20087;-76
2022/10/28 02:40:58;;;;;;;35.50;18.65;;;11.50;99.90;;;;;;5034215;28;20106;-76
2022/10/28 02:43:26;;;;;;;33.20;16.95;;;11.50;99.90;;;;;;5051618;28;20060;-76
2022/10/28 02:45:56;;;;;;;33.33;16.58;;;11.50;99.90;;;;;;5033885;28;20375;-76
2022/10/28 02:48:28;;;;;;;34.13;17.10;;;11.40;99.90;;;;;;5034523;28;20056;-76
2022/10/28 02:51:00;;;;;;;34.42;18.70;;;11.50;99.90;;;;;;5052308;28;20057;-76
2022/10/28 02:53:31;;;;;;;43.35;20.63;;;11.50;99.90;;;;;;5034447;28;20029;-76
2022/10/28 02:56:00;;;;;;;40.10;21.27;;;11.50;99.90;;;;;;5052210;28;20090;-76
2022/10/28 02:58:26;;;;;;;48.80;21.52;;;11.50;99.90;;;;;;5034084;28;20064;-76
2022/10/28 03:00:51;;;;;;;;;;;11.50;99.90;;;;;;5053637;28;20029;-77
2022/10/28 03:03:17;;;;;;;43.95;20.10;;;11.50;99.90;;;;;;5032825;28;20266;-76
2022/10/28 03:05:43;;;;;;;;;;;11.50;99.90;;;;;;5034011;28;20024;-77
2022/10/28 03:08:08;;;;;;;36.88;14.70;;;11.50;99.90;;;;;;5054018;28;19909;-76
2022/10/28 03:10:34;;;;;;;;;;;11.40;99.90;;;;;;5036216;28;20120;-76
2022/10/28 03:12:59;;;;;;;27.75;13.95;;;11.40;99.90;;;;;;5035762;28;19917;-76
2022/10/28 03:15:25;;;;;;;;;;;11.30;99.90;;;;;;5053686;28;20078;-76
2022/10/28 03:17:50;;;;;;;33.92;14.88;;;11.30;99.90;;;;;;5035284;28;19913;-76
2022/10/28 03:20:16;;;;;;;34.35;15.65;;;11.30;99.90;;;;;;5035638;28;20174;-76
2022/10/28 03:22:43;;;;;;;;;;;11.20;99.90;;;;;;5053152;28;20485;-76
2022/10/28 03:25:09;;;;;;;35.95;17.15;;;11.30;99.90;;;;;;5053368;28;19915;-76
2022/10/28 03:27:34;;;;;;;31.27;17.52;;;11.20;99.90;;;;;;5035470;28;20029;-76
2022/10/28 03:30:00;;;;;;;;;;;11.20;99.90;;;;;;5035693;28;20063;-76
2022/10/28 03:32:25;;;;;;;31.48;15.50;;;11.30;99.90;;;;;;5053449;28;19972;-76
2022/10/28 03:34:51;;;;;;;36.03;18.50;;;11.20;99.90;;;;;;5035120;28;20044;-76
2022/10/28 03:37:17;;;;;;;;;;;11.20;99.90;;;;;;5053708;28;20100;-76
2022/10/28 03:39:42;;;;;;;40.35;20.52;;;11.20;99.90;;;;;;5053177;28;19999;-76
2022/10/28 03:42:08;;;;;;;;;;;11.20;99.90;;;;;;5035318;28;20121;-76
2022/10/28 03:44:33;;;;;;;49.33;21.20;;;11.20;99.90;;;;;;5052889;28;19995;-76
2022/10/28 03:46:59;;;;;;;;;;;11.10;99.90;;;;;;5035303;28;20348;-76
2022/10/28 03:49:24;;;;;;;44.85;18.75;;;11.10;99.90;;;;;;5035111;28;20288;-76
2022/10/28 03:51:50;;;;;;;;;;;11.10;99.90;;;;;;5035392;28;20025;-76
2022/10/28 03:54:15;;;;;;;50.72;20.15;;;11.10;99.90;;;;;;5053144;28;19908;-76
2022/10/28 03:56:41;;;;;;;;;;;11.10;99.90;;;;;;5052767;28;20029;-76
2022/10/28 03:59:10;;;;;;;45.30;21.25;;;11.10;99.90;;;;;;5052961;28;20008;-76
2022/10/28 04:01:35;;;;;;;47.17;19.65;;;11.10;99.90;;;;;;5035432;28;20025;-75
2022/10/28 04:04:01;;;;;;;;;;;11.10;99.90;;;;;;5053538;28;20099;-76
2022/10/28 04:06:27;;;;;;;47.97;20.27;;;11.10;99.90;;;;;;5034922;28;19951;-75
2022/10/28 04:08:52;;;;;;;;;;;11.10;99.90;;;;;;5053114;28;20491;-75
2022/10/28 04:11:18;;;;;;;46.10;19.58;;;11.10;99.90;;;;;;5034849;28;19999;-75
2022/10/28 04:13:43;;;;;;;;;;;11.10;99.90;;;;;;5035074;28;20032;-76
2022/10/28 04:16:09;;;;;;;39.08;17.88;;;11.10;99.90;;;;;;5034067;28;19971;-75
2022/10/28 04:18:34;;;;;;;47.88;20.80;;;11.10;99.90;;;;;;5034550;28;20047;-75
2022/10/28 04:21:00;;;;;;;;;;;11.00;99.90;;;;;;5052872;28;20039;-76
2022/10/28 04:23:26;;;;;;;42.35;19.33;;;11.00;99.90;;;;;;5034664;28;19908;-76
2022/10/28 04:25:53;;;;;;;;;;;11.00;99.90;;;;;;5035055;28;20124;-76
2022/10/28 04:28:19;;;;;;;32.95;17.20;;;11.00;99.90;;;;;;5052945;28;19967;-76
2022/10/28 04:30:48;;;;;;;46.55;20.13;;;11.10;99.90;;;;;;5052808;28;20086;-75
2022/10/28 04:33:14;;;;;;;34.45;17.40;;;11.10;99.90;;;;;;5052369;28;20443;-77
2022/10/28 04:35:41;;;;;;;;;;;11.10;99.90;;;;;;5053133;28;20183;-76
2022/10/28 04:38:10;;;;;;;48.45;20.00;;;11.10;99.90;;;;;;5035088;28;20305;-76
2022/10/28 04:40:36;;;;;;;42.40;17.63;;;11.10;99.90;;;;;;5034659;28;20074;-76
2022/10/28 04:43:01;;;;;;;;;;;11.10;99.90;;;;;;5035083;28;20400;-76
2022/10/28 04:45:27;;;;;;;44.78;18.95;;;11.10;99.90;;;;;;5034887;28;19908;-76
2022/10/28 04:47:59;;;;;;;;;;;11.10;99.90;;;;;;5035123;28;20029;-76
2022/10/28 04:50:25;;;;;;;46.67;20.48;;;11.00;99.90;;;;;;5053169;28;19905;-77
2022/10/28 04:52:51;;;;;;;44.67;20.23;;;11.00;99.90;;;;;;5035070;28;20452;-76
2022/10/28 04:55:17;;;;;;;;;;;11.00;99.90;;;;;;5035048;28;20025;-76
2022/10/28 04:57:43;;;;;;;40.22;17.65;;;11.00;99.90;;;;;;5035190;28;19932;-76
2022/10/28 05:00:08;;;;;;;;;;;10.90;99.90;;;;;;5035531;28;20067;-76
2022/10/28 05:02:34;;;;;;;41.10;19.20;;;11.00;99.90;;;;;;5035112;28;19962;-76
2022/10/28 05:05:02;;;;;;;;;;;10.90;99.90;;;;;;5035446;28;20514;-76
2022/10/28 05:07:28;;;;;;;43.72;18.95;;;10.90;99.90;;;;;;5053417;28;19904;-76
2022/10/28 05:09:53;;;;;;;;;;;10.90;99.90;;;;;;5035680;28;20192;-76
2022/10/28 05:12:19;;;;;;;41.25;18.55;;;10.90;99.90;;;;;;5034925;28;20027;-76
2022/10/28 05:14:45;;;;;;;;;;;10.90;99.90;;;;;;5036814;28;20013;-77
2022/10/28 05:17:11;;;;;;;48.88;19.58;;;10.90;99.90;;;;;;5037767;28;20400;-76
2022/10/28 05:19:36;;;;;;;;;;;10.90;99.90;;;;;;5035850;28;20451;-76
2022/10/28 05:22:02;;;;;;;47.47;18.88;;;10.80;99.90;;;;;;5051376;28;19908;-76
2022/10/28 05:24:27;;;;;;;;;;;10.90;99.90;;;;;;5051417;28;20485;-76
2022/10/28 05:26:53;;;;;;;50.97;18.92;;;10.90;99.90;;;;;;5032697;28;19909;-76
2022/10/28 05:29:19;;;;;;;43.38;17.30;;;10.80;99.90;;;;;;5050137;28;20474;-76
2022/10/28 05:31:45;;;;;;;;;;;10.80;99.90;;;;;;5033356;28;20029;-76
2022/10/28 05:34:11;;;;;;;48.10;17.05;;;10.80;99.90;;;;;;5032401;28;19911;-75
2022/10/28 05:36:37;;;;;;;43.42;17.08;;;10.80;99.90;;;;;;5050568;28;20044;-76
2022/10/28 05:39:03;;;;;;;49.63;19.10;;;10.90;99.90;;;;;;5050575;28;20119;-77
2022/10/28 05:41:29;;;;;;;47.92;20.75;;;10.90;99.90;;;;;;5050861;28;20044;-77
2022/10/28 05:43:55;;;;;;;;;;;10.80;99.90;;;;;;5032572;28;20025;-76
2022/10/28 05:46:21;;;;;;;54.55;21.45;;;10.90;99.90;;;;;;5032685;28;19927;-76
2022/10/28 05:48:46;;;;;;;;;;;10.90;99.90;;;;;;5033002;28;20436;-76
2022/10/28 05:51:12;;;;;;;64.32;27.73;;;10.90;99.90;;;;;;5032321;28;19948;-75
2022/10/28 05:53:40;;;;;;;;;;;10.90;99.90;;;;;;5032926;28;20478;-76
2022/10/28 05:56:06;;;;;;;49.50;21.88;;;10.90;99.90;;;;;;5050564;28;19963;-76
2022/10/28 05:58:32;;;;;;;56.78;21.75;;;10.90;99.90;;;;;;5050031;28;20051;-76
2022/10/28 06:00:57;;;;;;;;;;;11.00;99.90;;;;;;5050921;28;20029;-77
2022/10/28 06:03:23;;;;;;;55.05;23.33;;;11.00;99.90;;;;;;5050423;28;19995;-77
2022/10/28 06:05:49;;;;;;;49.88;23.15;;;11.00;99.90;;;;;;5032820;28;20029;-77
2022/10/28 06:08:14;;;;;;;;;;;10.90;99.90;;;;;;5050507;28;20091;-76
2022/10/28 06:10:41;;;;;;;56.05;21.00;;;11.00;99.90;;;;;;5050390;28;20003;-75
2022/10/28 06:13:08;;;;;;;74.10;25.67;;;11.00;99.90;;;;;;5032229;28;20053;-76
2022/10/28 06:15:33;;;;;;;66.53;24.05;;;11.00;99.90;;;;;;5050373;28;20104;-76
2022/10/28 06:17:59;;;;;;;;;;;11.10;99.90;;;;;;5050657;28;20561;-77
2022/10/28 06:20:24;;;;;;;56.40;22.23;;;11.10;99.90;;;;;;5050372;28;19912;-76
2022/10/28 06:22:54;;;;;;;;;;;11.10;99.90;;;;;;5050628;28;20032;-76
2022/10/28 06:25:21;;;;;;;62.50;23.92;;;11.10;99.90;;;;;;5050593;28;19905;-77
2022/10/28 06:27:58;;;;;;;59.15;23.17;;;11.20;99.90;;;;;;5032665;28;20159;-76
2022/10/28 06:30:25;;;;;;;64.25;24.90;;;11.20;99.90;;;;;;5050528;28;20099;-76
2022/10/28 06:32:50;;;;;;;50.00;21.13;;;11.20;99.90;;;;;;5032716;28;20392;-76
2022/10/28 06:35:16;;;;;;;;;;;11.30;99.90;;;;;;5032506;28;20766;-76
2022/10/28 06:37:42;;;;;;;58.38;23.90;;;11.30;99.90;;;;;;5032362;28;19909;-76
2022/10/28 06:40:07;;;;;;;;;;;11.30;99.90;;;;;;5050807;28;20097;-76
2022/10/28 06:42:33;;;;;;;59.85;24.40;;;11.30;99.90;;;;;;5033095;28;19923;-76
2022/10/28 06:44:58;;;;;;;;;;;11.30;99.90;;;;;;5051664;28;20032;-77
2022/10/28 06:47:24;;;;;;;49.00;22.55;;;11.30;99.90;;;;;;5050296;28;20165;-76
2022/10/28 06:49:49;;;;;;;;;;;11.30;99.90;;;;;;5050820;28;20033;-76
2022/10/28 06:52:15;;;;;;;49.78;22.70;;;11.30;99.90;;;;;;5032990;28;19934;-76
2022/10/28 06:54:42;;;;;;;;;;;11.20;99.90;;;;;;5032908;28;20025;-76
2022/10/28 06:57:08;;;;;;;52.33;22.60;;;11.30;99.90;;;;;;5051130;28;19913;-77
2022/10/28 06:59:34;;;;;;;43.95;20.90;;;11.40;99.90;;;;;;5032767;28;20048;-76
2022/10/28 07:01:59;;;;;;;;;;;11.30;99.90;;;;;;5033509;28;20029;-76
2022/10/28 07:04:25;;;;;;;49.03;20.77;;;11.40;99.90;;;;;;5050675;28;19983;-76
2022/10/28 07:06:54;;;;;;;49.75;22.45;;;11.40;99.90;;;;;;5032922;28;20512;-76
2022/10/28 07:09:20;;;;;;;49.58;21.98;;;11.40;99.90;;;;;;5051343;28;20101;-76
2022/10/28 07:11:48;;;;;;;;;;;11.40;99.90;;;;;;5033916;28;20052;-76
2022/10/28 07:14:14;;;;;;;48.92;20.65;;;11.40;99.90;;;;;;5033651;28;19905;-76
2022/10/28 07:16:40;;;;;;;;;;;11.40;99.90;;;;;;5051510;28;20083;-76
2022/10/28 07:19:06;;;;;;;45.70;20.87;;;11.50;99.90;;;;;;5051446;28;19928;-76
2022/10/28 07:21:32;;;;;;;50.42;22.55;;;11.50;99.90;;;;;;5034105;28;20390;-77
2022/10/28 07:23:57;;;;;;;;;;;11.60;99.90;;;;;;5052214;28;20053;-76
2022/10/28 07:26:23;;;;;;;55.72;23.67;;;11.60;99.90;;;;;;5034149;28;19991;-76
2022/10/28 07:28:49;;;;;;;;;;;11.60;99.90;;;;;;5052447;28;20029;-76
2022/10/28 07:31:15;;;;;;;46.88;22.67;;;11.70;99.90;;;;;;5053290;28;19912;-76
2022/10/28 07:33:40;;;;;;;56.45;23.58;;;11.60;99.90;;;;;;5034517;28;20802;-76
2022/10/28 07:36:06;;;;;;;;;;;11.70;99.90;;;;;;5034199;28;20033;-76
2022/10/28 07:38:33;;;;;;;45.88;22.38;;;11.80;99.90;;;;;;5031731;28;19920;-75
2022/10/28 07:41:06;;;;;;;46.70;20.25;;;11.80;99.90;;;;;;5031496;28;20044;-76
2022/10/28 07:43:35;;;;;;;37.50;19.55;;;11.90;99.90;;;;;;5049552;28;20108;-76
2022/10/28 07:46:00;;;;;;;40.15;18.92;;;12.00;99.90;;;;;;5031677;28;20037;-75
2022/10/28 07:48:26;;;;;;;;;;;12.00;99.90;;;;;;5049655;28;20445;-75
2022/10/28 07:50:51;;;;;;;31.25;16.77;;;12.00;99.90;;;;;;5049354;28;19916;-76
2022/10/28 07:53:17;;;;;;;;;;;12.10;99.90;;;;;;5053720;28;20033;-75
2022/10/28 07:55:42;;;;;;;30.58;16.10;;;12.20;99.90;;;;;;5035779;28;19978;-76
2022/10/28 07:58:08;;;;;;;;;;;12.30;99.90;;;;;;5035713;28;20032;-76
2022/10/28 08:00:33;;;;;;;26.33;13.50;;;12.30;99.90;;;;;;5034765;28;20391;-76
2022/10/28 08:03:00;;;;;;;;;;;12.30;99.90;;;;;;5035892;28;20118;-76
2022/10/28 08:05:26;;;;;;;25.25;14.23;;;12.30;99.90;;;;;;5035182;28;19988;-76
2022/10/28 08:07:51;;;;;;;;;;;12.30;99.90;;;;;;5053772;28;20037;-76
2022/10/28 08:10:17;;;;;;;25.10;13.38;;;12.40;99.90;;;;;;5034865;28;19909;-75
2022/10/28 08:12:42;;;;;;;;;;;12.40;99.90;;;;;;5035496;28;20049;-76
2022/10/28 08:15:09;;;;;;;23.20;13.40;;;12.40;99.90;;;;;;5052838;28;19915;-76
2022/10/28 08:17:35;;;;;;;25.58;13.70;;;12.40;99.90;;;;;;5053007;28;20141;-76
2022/10/28 08:20:00;;;;;;;;;;;12.50;99.90;;;;;;5035245;28;20596;-75
2022/10/28 08:22:26;;;;;;;25.67;13.48;;;12.50;99.90;;;;;;5035210;28;19911;-76
2022/10/28 08:24:51;;;;;;;;;;;12.60;99.90;;;;;;5053090;28;20036;-76
2022/10/28 08:27:17;;;;;;;26.65;15.32;;;12.60;99.90;;;;;;5034620;28;19912;-76
2022/10/28 08:29:42;;;;;;;;;;;12.60;99.90;;;;;;5053269;28;20044;-75
2022/10/28 08:32:08;;;;;;;28.20;16.45;;;12.60;99.90;;;;;;5053067;28;19939;-75
2022/10/28 08:34:34;;;;;;;27.17;15.23;;;12.60;99.90;;;;;;5034645;28;20493;-76
2022/10/28 08:36:59;;;;;;;28.63;16.35;;;12.60;99.90;;;;;;5053089;28;20036;-76
2022/10/28 08:39:25;;;;;;;;;;;12.60;99.90;;;;;;5035192;28;20405;-76
2022/10/28 08:42:06;;;;;;;31.20;18.90;;;12.60;99.90;;;;;;5052510;28;20128;-75
2022/10/28 08:45:01;;;;;;;28.40;15.65;;;12.50;99.90;;;;;;5052518;28;20033;-75
2022/10/28 08:47:36;;;;;;;28.58;16.08;;;12.60;99.90;;;;;;5034585;28;20033;-75
2022/10/28 08:50:10;;;;;;;29.48;16.90;;;12.50;99.90;;;;;;5035129;28;20037;-76
2022/10/28 08:52:47;;;;;;;100.90;54.35;;;12.40;99.90;;;;;;5052398;28;20029;-75
2022/10/28 08:55:27;;;;;;;51.63;28.67;;;12.40;99.90;;;;;;5052599;28;20033;-75
2022/10/28 08:58:28;;;;;;;38.97;22.38;;;12.50;99.90;;;;;;5052349;28;20086;-76
2022/10/28 09:00:58;;;;;;;31.15;17.70;;;12.60;99.90;;;;;;5034157;28;20519;-76
2022/10/28 09:03:45;;;;;;;30.40;18.27;;;12.60;99.90;;;;;;5052204;28;20017;-76
2022/10/28 09:06:11;;;;;;;27.50;16.15;;;12.70;99.90;;;;;;5051691;28;20033;-75
2022/10/28 09:08:39;;;;;;;;;;;12.70;99.90;;;;;;5051942;28;20033;-75
2022/10/28 09:11:10;;;;;;;34.38;18.25;;;12.80;99.90;;;;;;5052114;28;20011;-76
2022/10/28 09:13:41;;;;;;;80.32;41.28;;;12.80;99.90;;;;;;5052322;28;20025;-76
2022/10/28 09:16:14;;;;;;;108.47;52.88;;;12.80;99.90;;;;;;5052281;28;20052;-76
2022/10/28 09:18:52;;;;;;;62.20;36.65;;;12.90;99.90;;;;;;5034178;28;20045;-76
2022/10/28 09:21:19;;;;;;;39.80;23.40;;;12.90;99.90;;;;;;5051622;28;20040;-76
2022/10/28 09:23:54;;;;;;;38.65;21.05;;;12.90;99.90;;;;;;5052194;28;20110;-76
2022/10/28 09:26:45;;;;;;;34.17;19.92;;;12.90;99.90;;;;;;5051859;28;20021;-75
2022/10/28 09:29:37;;;;;;;37.97;21.80;;;12.90;99.90;;;;;;5052291;28;20033;-76
2022/10/28 09:32:05;;;;;;;38.55;19.63;;;13.00;99.90;;;;;;5052182;28;20075;-75
2022/10/28 09:34:48;;;;;;;34.17;20.85;;;13.00;99.90;;;;;;5033787;28;20080;-75
2022/10/28 09:37:31;;;;;;;33.72;20.40;;;13.10;99.90;;;;;;5034083;28;20025;-75
2022/10/28 09:40:01;;;;;;;29.90;19.08;;;13.10;99.90;;;;;;5051462;28;20071;-76
2022/10/28 09:42:33;;;;;;;42.45;20.92;;;13.10;99.90;;;;;;5033967;28;20033;-75
2022/10/28 09:45:09;;;;;;;42.05;24.30;;;13.20;99.90;;;;;;5033729;28;20032;-76
2022/10/28 09:47:57;;;;;;;39.53;23.80;;;13.20;99.90;;;;;;5033850;28;20032;-76
2022/10/28 09:50:28;;;;;;;45.22;28.52;;;13.20;99.90;;;;;;5035203;28;20830;-76
2022/10/28 09:53:17;;;;;;;37.70;21.95;;;13.20;99.90;;;;;;5051281;28;20029;-75
2022/10/28 09:55:42;;;;;;;34.78;20.38;;;13.20;99.90;;;;;;5051233;28;20549;-75
2022/10/28 09:58:09;;;;;;;;;;;13.20;99.90;;;;;;5051134;28;20124;-76
2022/10/28 10:00:35;;;;;;;39.50;22.95;;;13.10;99.90;;;;;;5050788;28;19916;-75
2022/10/28 10:03:02;;;;;;;37.75;23.77;;;13.20;99.90;;;;;;5051034;28;20104;-76
2022/10/28 10:05:30;;;;;;;;;;;13.20;99.90;;;;;;5051066;28;20033;-76
2022/10/28 10:08:03;;;;;;;39.67;23.58;;;13.20;99.90;;;;;;5050948;28;19999;-75
2022/10/28 10:11:03;;;;;;;38.63;22.13;;;13.10;99.90;;;;;;5050449;28;20061;-75
2022/10/28 10:13:34;;;;;;;38.53;19.88;;;13.10;99.90;;;;;;5002469;28;20047;-75
2022/10/28 10:16:04;;;;;;;34.58;20.42;;;13.10;99.90;;;;;;5050105;28;20037;-75
2022/10/28 10:18:35;;;;;;;44.75;26.95;;;13.10;99.90;;;;;;5032463;28;20467;-76
2022/10/28 10:21:01;;;;;;;43.92;25.13;;;13.10;99.90;;;;;;5050545;28;20606;-76
2022/10/28 10:23:31;;;;;;;51.40;29.38;;;13.10;99.90;;;;;;5050302;28;20028;-75
2022/10/28 10:26:10;;;;;;;48.08;29.73;;;13.10;99.90;;;;;;5032611;28;20304;-76
2022/10/28 10:28:50;;;;;;;41.95;25.85;;;13.10;99.90;;;;;;5050129;28;20567;-76
2022/10/28 10:31:24;;;;;;;37.05;21.95;;;13.10;99.90;;;;;;5027875;28;20048;-77
2022/10/28 10:33:52;;;;;;;31.88;20.08;;;13.10;99.90;;;;;;5032357;28;20036;-76
2022/10/28 10:36:22;;;;;;;32.17;21.20;;;13.10;99.90;;;;;;5050106;28;20497;-76
2022/10/28 10:38:57;;;;;;;31.60;20.55;;;13.20;99.90;;;;;;5050232;28;20033;-76
2022/10/28 10:41:33;;;;;;;33.55;22.65;;;13.20;99.90;;;;;;5049665;28;20028;-75
2022/10/28 10:43:59;;;;;;;32.70;21.45;;;13.30;99.90;;;;;;5049584;28;20432;-75
2022/10/28 10:46:26;;;;;;;27.95;18.58;;;13.30;99.90;;;;;;5032363;28;20032;-75
2022/10/28 10:49:12;;;;;;;29.35;17.90;;;13.30;99.90;;;;;;5050277;28;20079;-76
2022/10/28 10:51:40;;;;;;;24.33;17.40;;;13.30;99.90;;;;;;5049854;28;20029;-76
2022/10/28 10:54:14;;;;;;;25.05;17.25;;;13.20;99.90;;;;;;5032263;28;20037;-75
2022/10/28 10:56:40;;;;;;;23.27;16.38;;;13.30;99.90;;;;;;5031713;28;20083;-75
2022/10/28 10:59:15;;;;;;;20.80;13.57;;;13.30;99.90;;;;;;5031738;28;20073;-75
2022/10/28 11:01:41;;;;;;;25.35;16.85;;;13.40;99.90;;;;;;5031966;28;20088;-75
2022/10/28 11:04:14;;;;;;;26.38;18.08;;;13.40;99.90;;;;;;5031488;28;20353;-76
2022/10/28 11:06:42;;;;;;;28.38;17.80;;;13.50;99.90;;;;;;5049904;28;20052;-76
2022/10/28 11:09:33;;;;;;;30.40;17.42;;;13.50;99.90;;;;;;5032249;28;20100;-75
2022/10/28 11:11:59;;;;;;;30.73;15.50;;;13.50;99.90;;;;;;5049326;28;20059;-76
2022/10/28 11:14:29;;;;;;;23.58;15.15;;;13.60;99.90;;;;;;5031909;28;20037;-75
2022/10/28 11:17:00;;;;;;;25.67;16.20;;;13.60;99.90;;;;;;5032101;28;20489;-76
2022/10/28 11:19:33;;;;;;;25.77;16.05;;;13.70;99.90;;;;;;5049235;28;20036;-76
2022/10/28 11:22:10;;;;;;;25.35;16.75;;;13.70;99.90;;;;;;5050871;28;20092;-75
2022/10/28 11:25:06;;;;;;;25.60;15.40;;;13.80;99.90;;;;;;5031461;28;20031;-75
2022/10/28 11:28:06;;;;;;;24.88;14.77;;;13.80;99.90;;;;;;5052318;28;20496;-76
2022/10/28 11:30:52;;;;;;;21.83;14.52;;;13.80;99.90;;;;;;4964678;28;20051;-76
2022/10/28 11:33:35;;;;;;;19.42;13.32;;;13.80;99.90;;;;;;5053750;28;20082;-76
2022/10/28 11:36:21;;;;;;;20.33;13.38;;;13.80;99.90;;;;;;5035533;28;20036;-76
2022/10/28 11:38:58;;;;;;;21.73;14.13;;;13.80;99.90;;;;;;5053518;28;20060;-75
2022/10/28 11:41:42;;;;;;;25.05;15.85;;;13.80;99.90;;;;;;5053478;28;20100;-76
2022/10/28 11:44:42;;;;;;;28.20;17.75;;;13.80;99.90;;;;;;5035387;28;20025;-75
2022/10/28 11:47:40;;;;;;;27.58;16.08;;;13.90;99.90;;;;;;5035653;28;20498;-76
2022/10/28 11:50:15;;;;;;;21.38;14.75;;;13.90;99.90;;;;;;4995730;28;20041;-76
2022/10/28 11:53:00;;;;;;;24.13;15.75;;;13.80;99.90;;;;;;5053009;28;20036;-75
2022/10/28 11:55:45;;;;;;;35.45;19.20;;;13.90;99.90;;;;;;5053315;28;20105;-76
2022/10/28 11:58:22;;;;;;;30.55;18.10;;;13.90;99.90;;;;;;5035321;28;20519;-76
2022/10/28 12:01:09;;;;;;;36.35;19.52;;;13.90;99.90;;;;;;5035347;28;20384;-77
2022/10/28 12:03:50;;;;;;;35.95;20.20;;;13.80;99.90;;;;;;5053758;28;20025;-76
2022/10/28 12:06:54;;;;;;;30.08;17.67;;;13.80;99.90;;;;;;5053982;28;20025;-76
2022/10/28 12:09:47;;;;;;;28.95;16.88;;;13.80;99.90;;;;;;5052002;28;20048;-75
2022/10/28 12:12:19;;;;;;;28.38;17.20;;;13.90;99.90;;;;;;5034801;28;20106;-76
2022/10/28 12:14:55;;;;;;;30.77;17.23;;;13.90;99.90;;;;;;5052497;28;20147;-76
2022/10/28 12:17:34;;;;;;;32.00;19.05;;;13.90;99.90;;;;;;5034569;28;20032;-77
2022/10/28 12:20:08;;;;;;;21.23;15.05;;;13.90;99.90;;;;;;5034332;28;20033;-75
2022/10/28 12:22:54;;;;;;;16.92;12.10;;;14.00;99.90;;;;;;5051793;28;20036;-75
2022/10/28 12:25:27;;;;;;;16.50;11.85;;;14.00;99.90;;;;;;5034467;28;20021;-76
2022/10/28 12:27:58;;;;;;;15.48;11.63;;;14.00;99.90;;;;;;5052371;28;20025;-76
2022/10/28 12:30:29;;;;;;;21.75;15.35;;;14.00;99.90;;;;;;5052147;28;20025;-76
2022/10/28 12:33:12;;;;;;;23.67;14.88;;;14.00;99.90;;;;;;5034250;28;20082;-76
2022/10/28 12:35:45;;;;;;;19.15;13.23;;;14.00;99.90;;;;;;5052497;28;20059;-76
2022/10/28 12:38:27;;;;;;;17.00;12.40;;;14.00;99.90;;;;;;5033889;28;20036;-75
2022/10/28 12:41:14;;;;;;;18.58;12.70;;;14.00;99.90;;;;;;5051965;28;20044;-76
2022/10/28 12:43:49;;;;;;;35.58;20.35;;;14.00;99.90;;;;;;5052347;28;20024;-76
2022/10/28 12:46:47;;;;;;;25.63;16.73;;;14.00;99.90;;;;;;5034158;28;20083;-76
2022/10/28 12:49:48;;;;;;;31.38;17.63;;;14.00;99.90;;;;;;5052125;28;20100;-76
2022/10/28 12:52:24;;;;;;;20.27;14.57;;;13.90;99.90;;;;;;5052118;28;20072;-76
2022/10/28 12:55:13;;;;;;;24.10;14.85;;;13.90;99.90;;;;;;5051668;28;20505;-76
2022/10/28 12:57:45;;;;;;;26.05;17.65;;;14.00;99.90;;;;;;5033633;28;20039;-76
2022/10/28 13:00:28;;;;;;;23.42;14.73;;;14.00;99.90;;;;;;5051874;28;20783;-76
2022/10/28 13:03:08;;;;;;;25.25;15.82;;;13.90;99.90;;;;;;5034006;28;20037;-76
2022/10/28 13:05:37;;;;;;;24.08;14.77;;;13.90;99.90;;;;;;5051814;28;20021;-76
2022/10/28 13:08:12;;;;;;;27.35;16.65;;;13.90;99.90;;;;;;5034389;28;20044;-75
2022/10/28 13:10:49;;;;;;;22.92;15.50;;;13.90;99.90;;;;;;5033839;28;20021;-75